createdAt,value
2022-10-28T00:01:41.790Z,3.65
2022-10-28T00:04:44.005Z,4.07
2022-10-28T00:07:46.201Z,3.95
2022-10-28T00:10:48.370Z,4.05
2022-10-28T00:13:53.836Z,3.50
2022-10-28T00:16:55.989Z,3.45
2022-10-28T00:19:58.152Z,3.97
2022-10-28T00:23:00.368Z,4.53
2022-10-28T00:26:19.592Z,4.50
2022-10-28T00:29:21.836Z,3.47
2022-10-28T00:32:24.430Z,3.83
2022-10-28T00:35:26.580Z,3.80
2022-10-28T00:38:30.777Z,4.22
2022-10-28T00:41:35.889Z,3.92
2022-10-28T00:44:52.518Z,3.67
2022-10-28T00:47:59.613Z,3.72
2022-10-28T00:51:02.880Z,3.67
2022-10-28T00:54:06.586Z,3.63
2022-10-28T00:57:14.840Z,4.55
2022-10-28T01:00:17.637Z,7.13
2022-10-28T01:03:20.126Z,4.47
2022-10-28T01:06:23.189Z,3.67
2022-10-28T01:12:49.491Z,3.63
2022-10-28T01:15:56.596Z,4.18
2022-10-28T01:19:17.133Z,3.60
2022-10-28T01:22:29.083Z,4.57
2022-10-28T01:25:49.778Z,3.85
2022-10-28T01:29:19.681Z,3.50
2022-10-28T01:32:30.608Z,3.60
2022-10-28T01:35:35.624Z,3.80
2022-10-28T01:38:37.708Z,4.10
2022-10-28T01:41:51.315Z,3.55
2022-10-28T01:45:19.153Z,4.20
2022-10-28T01:48:34.163Z,4.03
2022-10-28T01:51:41.954Z,4.05
2022-10-28T01:54:48.451Z,4.40
2022-10-28T01:57:52.206Z,4.00
2022-10-28T02:00:55.917Z,3.75
2022-10-28T02:04:02.998Z,4.40
2022-10-28T02:07:05.582Z,4.00
2022-10-28T02:10:21.115Z,4.40
2022-10-28T02:13:47.651Z,3.78
2022-10-28T02:17:06.611Z,3.53
2022-10-28T02:20:14.675Z,4.07
2022-10-28T02:23:26.505Z,4.00
2022-10-28T02:26:39.073Z,3.70
2022-10-28T02:30:02.136Z,3.85
2022-10-28T02:33:09.344Z,3.70
2022-10-28T02:36:16.369Z,4.25
2022-10-28T02:39:26.458Z,3.92
2022-10-28T02:42:37.352Z,4.20
2022-10-28T02:45:47.140Z,3.88
2022-10-28T02:48:53.664Z,3.60
2022-10-28T02:52:00.047Z,4.65
2022-10-28T02:55:06.531Z,4.10
2022-10-28T02:58:10.318Z,4.63
2022-10-28T03:01:12.656Z,3.85
2022-10-28T03:04:14.991Z,4.13
2022-10-28T03:07:17.496Z,3.90
2022-10-28T03:10:20.133Z,3.55
2022-10-28T03:13:22.290Z,3.60
2022-10-28T03:16:26.564Z,4.43
2022-10-28T03:19:28.740Z,4.25
2022-10-28T03:22:30.888Z,3.75
2022-10-28T03:25:33.048Z,3.75
2022-10-28T03:28:35.257Z,4.00
2022-10-28T03:31:37.502Z,4.00
2022-10-28T03:34:39.701Z,3.58
2022-10-28T03:37:43.784Z,4.20
2022-10-28T03:40:49.819Z,4.68
2022-10-28T03:43:51.971Z,3.90
2022-10-28T03:46:54.195Z,3.85
2022-10-28T03:49:56.325Z,3.78
2022-10-28T03:52:58.580Z,4.28
2022-10-28T03:56:02.035Z,3.20
2022-10-28T03:59:04.172Z,3.90
2022-10-28T04:02:06.392Z,3.60
2022-10-28T04:05:08.845Z,4.25
2022-10-28T04:08:11.129Z,4.07
2022-10-28T04:11:13.289Z,4.43
2022-10-28T04:14:15.560Z,4.40
2022-10-28T04:17:17.723Z,4.03
2022-10-28T04:20:19.937Z,3.92
2022-10-28T04:23:22.140Z,4.15
2022-10-28T04:26:24.327Z,4.05
2022-10-28T04:29:26.537Z,4.00
2022-10-28T04:32:28.722Z,3.80
2022-10-28T04:35:30.901Z,4.18
2022-10-28T04:38:33.102Z,4.60
2022-10-28T04:41:35.448Z,4.32
2022-10-28T04:44:37.622Z,4.07
2022-10-28T04:47:39.753Z,3.78
2022-10-28T04:50:42.057Z,4.95
2022-10-28T04:53:47.283Z,3.92
2022-10-28T04:56:49.461Z,4.55
2022-10-28T04:59:51.693Z,5.43
2022-10-28T05:02:54.738Z,4.70
2022-10-28T05:05:58.696Z,4.32
2022-10-28T05:09:00.882Z,4.90
2022-10-28T05:12:03.178Z,4.97
2022-10-28T05:15:05.946Z,4.90
2022-10-28T05:18:08.099Z,4.53
2022-10-28T05:21:10.482Z,5.40
2022-10-28T05:24:12.649Z,4.95
2022-10-28T05:27:16.040Z,5.07
2022-10-28T05:30:18.661Z,5.03
2022-10-28T05:33:21.267Z,4.03
2022-10-28T05:36:23.496Z,5.78
2022-10-28T05:39:25.662Z,4.18
2022-10-28T05:42:27.893Z,4.85
2022-10-28T05:48:37.652Z,4.70
2022-10-28T05:51:39.814Z,5.90
2022-10-28T05:54:41.968Z,5.38
2022-10-28T05:57:44.185Z,5.72
2022-10-28T06:00:46.428Z,5.07
2022-10-28T06:03:48.622Z,4.65
2022-10-28T06:06:50.932Z,5.82
2022-10-28T06:09:53.178Z,8.38
2022-10-28T06:12:55.347Z,7.50
2022-10-28T06:15:57.635Z,7.80
2022-10-28T06:18:59.858Z,7.88
2022-10-28T06:22:02.100Z,8.60
2022-10-28T06:25:04.625Z,7.47
2022-10-28T06:28:10.363Z,10.60
2022-10-28T06:31:12.790Z,10.10
2022-10-28T06:34:15.094Z,12.70
2022-10-28T06:37:17.256Z,10.65
2022-10-28T06:40:19.444Z,12.57
2022-10-28T06:43:21.699Z,12.23
2022-10-28T06:46:23.907Z,8.10
2022-10-28T06:49:28.953Z,10.52
2022-10-28T06:52:31.229Z,9.45
2022-10-28T06:55:33.465Z,9.57
2022-10-28T06:58:35.718Z,31.35
2022-10-28T07:01:37.948Z,14.57
2022-10-28T07:04:40.216Z,12.52
2022-10-28T07:07:42.401Z,10.13
2022-10-28T07:10:44.718Z,9.85
2022-10-28T07:13:48.964Z,10.40
2022-10-28T07:16:51.359Z,14.33
2022-10-28T07:19:53.615Z,13.55
2022-10-28T07:23:00.154Z,14.65
2022-10-28T07:26:03.694Z,12.95
2022-10-28T07:29:05.907Z,12.95
2022-10-28T07:32:08.170Z,10.37
2022-10-28T07:35:10.461Z,12.68
2022-10-28T07:38:12.688Z,8.70
2022-10-28T07:41:15.870Z,10.30
2022-10-28T07:44:18.520Z,13.88
2022-10-28T07:47:22.152Z,7.83
2022-10-28T07:50:24.414Z,8.52
2022-10-28T07:53:28.740Z,12.88
2022-10-28T07:56:31.283Z,17.45
2022-10-28T07:59:33.530Z,7.97
2022-10-28T08:02:35.714Z,10.57
2022-10-28T08:05:37.914Z,11.43
2022-10-28T08:08:40.288Z,10.90
2022-10-28T08:11:42.589Z,10.45
2022-10-28T08:14:44.829Z,10.95
2022-10-28T08:17:51.780Z,8.30
2022-10-28T08:20:54.144Z,11.10
2022-10-28T08:23:56.378Z,12.73
2022-10-28T08:26:58.532Z,9.50
2022-10-28T08:30:00.825Z,8.93
2022-10-28T08:33:03.045Z,8.10
2022-10-28T08:36:07.116Z,15.70
2022-10-28T08:39:09.315Z,10.80
2022-10-28T08:42:50.479Z,9.20
2022-10-28T08:45:59.762Z,10.07
2022-10-28T08:49:04.272Z,9.53
2022-10-28T08:52:24.721Z,8.18
2022-10-28T08:55:47.135Z,9.88
2022-10-28T08:58:50.062Z,8.65
2022-10-28T09:02:03.479Z,7.82
2022-10-28T09:05:15.180Z,11.20
2022-10-28T09:08:24.549Z,10.32
2022-10-28T09:12:01.653Z,15.05
2022-10-28T09:15:21.939Z,10.55
2022-10-28T09:18:47.132Z,17.55
2022-10-28T09:22:00.316Z,11.33
2022-10-28T09:25:10.281Z,12.63
2022-10-28T09:28:34.083Z,10.68
2022-10-28T09:31:53.169Z,7.57
2022-10-28T09:35:00.601Z,14.02
2022-10-28T09:38:24.803Z,11.47
2022-10-28T09:41:38.885Z,13.52
2022-10-28T09:44:57.170Z,13.50
2022-10-28T09:48:14.696Z,12.18
2022-10-28T09:51:29.066Z,9.35
2022-10-28T09:54:38.012Z,12.80
2022-10-28T09:57:46.374Z,8.65
2022-10-28T10:00:50.147Z,10.20
2022-10-28T10:03:53.325Z,10.52
2022-10-28T10:07:57.040Z,9.77
2022-10-28T10:11:22.457Z,13.27
2022-10-28T10:14:37.038Z,11.35
2022-10-28T10:17:46.047Z,14.43
2022-10-28T10:20:55.768Z,11.80
2022-10-28T10:23:59.859Z,10.95
2022-10-28T10:27:11.373Z,9.80
2022-10-28T10:30:46.695Z,10.77
2022-10-28T10:33:55.550Z,11.13
2022-10-28T10:36:58.002Z,10.85
2022-10-28T10:40:24.401Z,9.38
2022-10-28T10:43:34.055Z,11.83
2022-10-28T10:46:36.244Z,9.85
2022-10-28T10:49:38.469Z,10.00
2022-10-28T10:52:49.048Z,9.93
2022-10-28T10:55:56.045Z,9.13
2022-10-28T10:59:06.218Z,9.20
2022-10-28T11:02:24.362Z,13.20
2022-10-28T11:05:29.315Z,9.55
2022-10-28T11:08:43.004Z,10.77
2022-10-28T11:11:45.436Z,11.23
2022-10-28T11:15:01.878Z,9.33
2022-10-28T11:18:19.269Z,10.55
2022-10-28T11:21:47.914Z,9.25
2022-10-28T11:24:52.735Z,9.80
2022-10-28T11:28:07.836Z,21.35
2022-10-28T11:31:28.321Z,14.10
2022-10-28T11:34:51.989Z,11.57
2022-10-28T11:38:08.644Z,8.73
2022-10-28T11:41:22.039Z,11.55
2022-10-28T11:44:49.053Z,10.15
2022-10-28T11:48:14.240Z,10.83
2022-10-28T11:51:42.629Z,9.43
2022-10-28T11:55:20.262Z,8.43
2022-10-28T11:58:33.627Z,9.63
2022-10-28T12:01:54.351Z,11.18
2022-10-28T12:04:59.296Z,11.97
2022-10-28T12:08:42.772Z,10.88
2022-10-28T12:15:16.076Z,10.60
2022-10-28T12:18:36.252Z,9.57
2022-10-28T12:22:00.052Z,7.50
2022-10-28T12:25:09.018Z,12.13
2022-10-28T12:28:22.696Z,13.63
2022-10-28T12:31:45.931Z,9.63
2022-10-28T12:34:59.117Z,17.08
2022-10-28T12:38:11.612Z,9.07
2022-10-28T12:41:18.692Z,10.73
2022-10-28T12:44:22.279Z,8.35
2022-10-28T12:47:27.339Z,8.70
2022-10-28T12:50:40.149Z,9.25
2022-10-28T12:53:45.097Z,7.63
2022-10-28T12:56:55.147Z,6.93
2022-10-28T13:00:04.117Z,10.82
2022-10-28T13:03:11.762Z,10.30
2022-10-28T13:09:42.704Z,10.67
2022-10-28T13:13:24.545Z,10.48
2022-10-28T13:16:40.858Z,9.20
2022-10-28T13:20:03.059Z,9.85
2022-10-28T13:23:20.234Z,12.85
2022-10-28T13:26:31.826Z,8.77
2022-10-28T13:29:35.138Z,9.50
2022-10-28T13:32:40.354Z,49.20
2022-10-28T13:35:42.919Z,21.40
2022-10-28T13:38:59.731Z,10.43
2022-10-28T13:42:24.931Z,8.47
2022-10-28T13:45:50.564Z,10.02
2022-10-28T13:48:53.041Z,11.88
2022-10-28T13:52:11.324Z,11.23
2022-10-28T13:55:27.194Z,7.50
2022-10-28T13:58:29.548Z,10.20
2022-10-28T14:01:45.541Z,10.02
2022-10-28T14:05:12.507Z,9.88
2022-10-28T14:08:48.824Z,7.82
2022-10-28T14:12:26.378Z,28.02
2022-10-28T14:15:31.895Z,9.63
2022-10-28T14:18:49.470Z,10.60
2022-10-28T14:21:59.206Z,12.93
2022-10-28T14:25:44.119Z,9.75
2022-10-28T14:28:47.146Z,16.08
2022-10-28T14:31:49.464Z,10.97
2022-10-28T14:34:52.087Z,9.48
2022-10-28T14:38:19.420Z,14.98
2022-10-28T14:41:59.323Z,18.15
2022-10-28T14:45:26.371Z,24.73
2022-10-28T14:49:27.454Z,17.80
2022-10-28T14:52:33.803Z,19.58
2022-10-28T14:55:36.592Z,15.63
2022-10-28T14:58:43.143Z,20.95
2022-10-28T15:02:04.031Z,15.05
2022-10-28T15:05:12.107Z,14.60
2022-10-28T15:08:14.305Z,19.08
2022-10-28T15:11:17.676Z,11.57
2022-10-28T15:14:25.981Z,9.82
2022-10-28T15:17:36.704Z,14.02
2022-10-28T15:20:38.888Z,15.37
2022-10-28T15:23:41.184Z,14.20
2022-10-28T15:26:43.433Z,10.27
2022-10-28T15:29:45.702Z,11.20
2022-10-28T15:32:47.887Z,11.07
2022-10-28T15:35:50.207Z,11.57
2022-10-28T15:39:05.852Z,12.25
2022-10-28T15:42:27.982Z,8.70
2022-10-28T15:45:36.033Z,7.88
2022-10-28T15:48:41.526Z,10.13
2022-10-28T15:51:43.716Z,8.10
2022-10-28T15:54:56.559Z,9.90
2022-10-28T15:58:05.212Z,10.45
2022-10-28T16:01:40.621Z,9.65
2022-10-28T16:04:46.285Z,9.48
2022-10-28T16:07:48.489Z,9.47
2022-10-28T16:10:54.995Z,9.73
2022-10-28T16:13:58.311Z,9.85
2022-10-28T16:17:19.620Z,10.90
2022-10-28T16:20:26.523Z,7.95
2022-10-28T16:23:39.150Z,7.90
2022-10-28T16:26:41.363Z,9.27
2022-10-28T16:29:43.755Z,9.35
2022-10-28T16:32:48.839Z,7.50
2022-10-28T16:35:53.606Z,8.15
2022-10-28T16:38:55.888Z,9.83
2022-10-28T16:41:58.067Z,8.02
2022-10-28T16:45:00.245Z,8.13
2022-10-28T16:48:02.413Z,7.53
2022-10-28T16:51:11.515Z,7.53
2022-10-28T16:54:13.728Z,7.37
2022-10-28T16:57:17.215Z,7.88
2022-10-28T17:00:19.625Z,8.02
2022-10-28T17:03:22.438Z,9.10
2022-10-28T17:06:26.875Z,6.97
2022-10-28T17:09:29.037Z,7.73
2022-10-28T17:12:31.238Z,8.52
2022-10-28T17:15:33.443Z,7.80
2022-10-28T17:18:35.621Z,6.10
2022-10-28T17:21:37.888Z,7.40
2022-10-28T17:24:40.094Z,8.93
2022-10-28T17:27:42.316Z,6.53
2022-10-28T17:30:44.488Z,9.45
2022-10-28T17:33:52.456Z,8.52
2022-10-28T17:36:54.657Z,7.57
2022-10-28T17:39:57.168Z,6.53
2022-10-28T17:42:59.616Z,8.02
2022-10-28T17:46:06.302Z,7.45
2022-10-28T17:49:08.868Z,7.60
2022-10-28T17:52:11.238Z,7.95
2022-10-28T17:55:13.429Z,6.63
2022-10-28T17:58:15.602Z,6.90
2022-10-28T18:01:17.956Z,6.40
2022-10-28T18:04:26.032Z,9.55
2022-10-28T18:07:28.270Z,7.10
2022-10-28T18:10:30.496Z,6.83
2022-10-28T18:13:35.141Z,7.25
2022-10-28T18:16:37.436Z,7.50
2022-10-28T18:19:39.724Z,5.95
2022-10-28T18:22:41.881Z,8.10
2022-10-28T18:25:44.048Z,7.23
2022-10-28T18:28:47.068Z,7.13
2022-10-28T18:31:49.483Z,7.40
2022-10-28T18:34:51.771Z,6.47
2022-10-28T18:37:54.516Z,5.88
2022-10-28T18:41:02.730Z,5.87
2022-10-28T18:44:05.804Z,7.05
2022-10-28T18:47:08.025Z,6.55
2022-10-28T18:50:10.184Z,5.40
2022-10-28T18:53:12.363Z,7.60
2022-10-28T18:56:17.603Z,6.53
2022-10-28T18:59:19.827Z,5.97
2022-10-28T19:02:22.201Z,6.00
2022-10-28T19:05:24.551Z,4.95
2022-10-28T19:08:26.751Z,6.80
2022-10-28T19:11:31.182Z,6.93
2022-10-28T19:14:33.629Z,7.38
2022-10-28T19:17:38.609Z,5.45
2022-10-28T19:20:40.780Z,6.50
2022-10-28T19:23:43.542Z,5.82
2022-10-28T19:26:45.689Z,5.30
2022-10-28T19:29:47.935Z,6.82
2022-10-28T19:32:50.142Z,5.88
2022-10-28T19:35:52.299Z,5.90
2022-10-28T19:38:55.776Z,5.72
2022-10-28T19:41:57.947Z,5.77
2022-10-28T19:45:01.305Z,6.47
2022-10-28T19:48:03.752Z,6.20
2022-10-28T19:51:07.154Z,6.13
2022-10-28T19:54:14.446Z,5.40
2022-10-28T19:57:16.821Z,5.70
2022-10-28T20:00:19.109Z,6.07
2022-10-28T20:03:21.281Z,5.32
2022-10-28T20:06:26.138Z,6.60
2022-10-28T20:09:29.223Z,5.53
2022-10-28T20:12:31.449Z,6.67
2022-10-28T20:15:33.745Z,7.03
2022-10-28T20:18:36.089Z,6.18
2022-10-28T20:21:38.937Z,6.13
2022-10-28T20:24:41.157Z,5.43
2022-10-28T20:27:43.364Z,5.70
2022-10-28T20:30:57.444Z,6.35
2022-10-28T20:34:01.670Z,6.55
2022-10-28T20:37:03.871Z,5.15
2022-10-28T20:40:07.717Z,6.07
2022-10-28T20:43:10.048Z,5.37
2022-10-28T20:46:16.112Z,5.22
2022-10-28T20:49:21.137Z,5.65
2022-10-28T20:55:30.421Z,4.97
2022-10-28T20:58:34.690Z,5.70
2022-10-28T21:01:39.518Z,4.68
2022-10-28T21:04:42.006Z,6.32
2022-10-28T21:07:44.197Z,5.78
2022-10-28T21:10:46.376Z,5.35
2022-10-28T21:13:54.311Z,5.33
2022-10-28T21:16:58.324Z,4.72
2022-10-28T21:23:04.668Z,4.88
2022-10-28T21:26:07.813Z,5.10
2022-10-28T21:29:09.981Z,5.70
2022-10-28T21:32:12.169Z,6.00
2022-10-28T21:35:14.587Z,5.03
2022-10-28T21:38:18.032Z,6.78
2022-10-28T21:41:21.242Z,5.55
2022-10-28T21:44:23.408Z,5.43
2022-10-28T21:47:26.999Z,5.85
2022-10-28T21:50:29.169Z,5.85
2022-10-28T21:53:33.611Z,4.80
2022-10-28T21:56:35.788Z,5.55
2022-10-28T21:59:38.015Z,5.20
2022-10-28T22:02:40.281Z,6.28
2022-10-28T22:05:49.832Z,6.13
2022-10-28T22:08:55.607Z,5.72
2022-10-28T22:11:57.760Z,5.63
2022-10-28T22:14:59.912Z,6.23
2022-10-28T22:18:02.078Z,6.07
2022-10-28T22:21:13.428Z,5.45
2022-10-28T22:24:15.763Z,5.38
2022-10-28T22:27:18.282Z,6.35
2022-10-28T22:30:20.489Z,5.50
2022-10-28T22:33:22.645Z,5.63
2022-10-28T22:36:27.158Z,5.97
2022-10-28T22:39:29.303Z,5.60
2022-10-28T22:42:31.494Z,5.72
2022-10-28T22:45:33.687Z,6.13
2022-10-28T22:48:35.926Z,5.25
2022-10-28T22:51:38.142Z,5.38
2022-10-28T22:54:40.297Z,6.07
2022-10-28T22:57:42.473Z,5.68
2022-10-28T23:00:44.860Z,6.03
2022-10-28T23:03:49.140Z,5.63
2022-10-28T23:06:51.295Z,5.80
2022-10-28T23:09:53.439Z,5.70
2022-10-28T23:12:59.985Z,5.97
2022-10-28T23:16:03.999Z,5.83
2022-10-28T23:19:06.180Z,5.57
2022-10-28T23:22:08.382Z,6.20
2022-10-28T23:25:10.576Z,5.38
2022-10-28T23:28:12.729Z,5.47
2022-10-28T23:31:15.454Z,5.47
2022-10-28T23:34:17.639Z,6.25
2022-10-28T23:37:19.782Z,5.18
2022-10-28T23:40:21.957Z,5.38
2022-10-28T23:43:24.144Z,5.35
2022-10-28T23:46:32.290Z,6.43
2022-10-28T23:49:37.060Z,5.07
2022-10-28T23:52:39.209Z,5.35
2022-10-28T23:55:46.432Z,4.90
2022-10-28T23:58:48.611Z,5.97
